createdAt,value
2022-11-20T00:02:41.810Z,136
2022-11-20T00:06:24.312Z,128
2022-11-20T00:09:00.672Z,119
2022-11-20T00:11:37.147Z,123
2022-11-20T00:16:33.639Z,124
2022-11-20T00:19:01.984Z,126
2022-11-20T00:21:30.195Z,128
2022-11-20T00:23:58.555Z,118
2022-11-20T00:26:26.719Z,114
2022-11-20T00:29:03.192Z,128
2022-11-20T00:36:36.263Z,152
2022-11-20T00:45:23.353Z,137
2022-11-20T00:59:07.067Z,139
2022-11-20T01:05:25.895Z,150
2022-11-20T01:38:55.699Z,166
2022-11-20T01:49:05.071Z,164
2022-11-20T01:56:38.104Z,153
2022-11-20T02:00:28.709Z,169
2022-11-20T02:26:33.676Z,191
2022-11-20T02:30:24.287Z,158
2022-11-20T02:32:52.485Z,178
2022-11-20T02:35:20.720Z,163
2022-11-20T02:37:49.031Z,187
2022-11-20T02:42:45.556Z,172
2022-11-20T02:46:27.955Z,184
2022-11-20T02:49:04.422Z,175
2022-11-20T02:51:40.844Z,163
2022-11-20T02:55:31.436Z,173
2022-11-20T02:57:59.798Z,181
2022-11-20T03:00:36.204Z,172
2022-11-20T03:03:12.635Z,155
2022-11-20T03:05:40.906Z,162
2022-11-20T03:09:31.504Z,153
2022-11-20T03:12:07.957Z,188
2022-11-20T03:14:45.992Z,173
2022-11-20T03:19:49.177Z,195
2022-11-20T03:23:39.815Z,183
2022-11-20T03:26:16.209Z,168
2022-11-20T03:30:06.795Z,170
2022-11-20T03:32:43.246Z,168
2022-11-20T03:36:33.866Z,175
2022-11-20T03:41:38.648Z,167
2022-11-20T03:45:37.313Z,170
2022-11-20T03:48:05.623Z,163
2022-11-20T03:50:42.053Z,175
2022-11-20T03:54:32.709Z,164
2022-11-20T03:57:00.937Z,194
2022-11-20T03:59:37.396Z,202
2022-11-20T04:04:34.047Z,195
2022-11-20T04:08:24.542Z,185
2022-11-20T04:11:00.960Z,208
2022-11-20T04:13:37.460Z,179
2022-11-20T04:16:13.881Z,173
2022-11-20T04:18:42.188Z,234
2022-11-20T04:22:33.910Z,202
2022-11-20T04:26:31.534Z,210
2022-11-20T04:28:59.809Z,197
2022-11-20T04:31:36.289Z,203
2022-11-20T04:34:04.544Z,168
2022-11-20T04:36:32.785Z,212
2022-11-20T04:39:01.082Z,176
2022-11-20T04:41:37.617Z,163
2022-11-20T04:45:28.085Z,173
2022-11-20T04:47:56.367Z,202
2022-11-20T04:50:24.649Z,168
2022-11-20T04:52:52.912Z,160
2022-11-20T04:55:21.170Z,163
2022-11-20T04:57:49.427Z,161
2022-11-20T05:01:31.894Z,152
2022-11-20T05:04:08.305Z,148
2022-11-20T05:33:47.599Z,148
2022-11-20T05:37:38.116Z,132
2022-11-20T05:41:20.519Z,148
2022-11-20T05:43:48.731Z,151
2022-11-20T05:47:31.143Z,152
2022-11-20T05:49:59.484Z,149
2022-11-20T05:52:35.983Z,150
2022-11-20T05:56:34.664Z,140
2022-11-20T05:59:02.990Z,139
2022-11-20T06:01:39.410Z,134
2022-11-20T06:05:21.775Z,139
2022-11-20T06:07:50.082Z,138
2022-11-20T06:11:32.542Z,130
2022-11-20T06:14:00.706Z,149
2022-11-20T06:17:33.592Z,167
2022-11-20T06:18:57.255Z,135
2022-11-20T06:21:25.558Z,125
2022-11-20T06:52:38.328Z,144
2022-11-20T06:55:11.680Z,140
2022-11-20T06:57:39.967Z,132
2022-11-20T07:01:22.405Z,124
2022-11-20T07:03:58.858Z,149
2022-11-20T07:06:27.089Z,151
2022-11-20T07:08:55.369Z,139
2022-11-20T07:11:23.605Z,150
2022-11-20T07:13:51.911Z,144
2022-11-20T07:16:20.164Z,139
2022-11-20T07:18:50.664Z,153
2022-11-20T07:22:30.814Z,136
2022-11-20T07:26:21.509Z,139
2022-11-20T07:31:26.228Z,123
2022-11-20T07:48:44.103Z,132
2022-11-20T07:59:59.489Z,121
2022-11-20T08:08:46.597Z,148
2022-11-20T08:16:27.705Z,63
2022-11-20T08:43:30.502Z,20
2022-11-20T08:46:06.900Z,55
2022-11-20T08:48:35.245Z,40
2022-11-20T08:52:25.818Z,23
2022-11-20T08:55:02.209Z,27
2022-11-20T08:57:30.475Z,25
2022-11-20T09:00:07.336Z,35
2022-11-20T09:02:43.399Z,31
2022-11-20T09:06:25.830Z,32
2022-11-20T09:08:54.130Z,31
2022-11-20T09:11:30.525Z,35
2022-11-20T09:13:58.812Z,24
2022-11-20T09:16:27.073Z,27
2022-11-20T09:19:13.397Z,44
2022-11-20T09:21:31.759Z,38
2022-11-20T09:24:00.046Z,27
2022-11-20T09:26:36.570Z,29
2022-11-20T09:29:04.889Z,36
2022-11-20T09:31:41.238Z,51
2022-11-20T09:35:15.478Z,50
2022-11-20T09:37:43.734Z,34
2022-11-20T09:41:34.381Z,40
2022-11-20T09:45:24.922Z,39
2022-11-20T09:47:53.154Z,40
2022-11-20T09:51:43.773Z,47
2022-11-20T09:55:26.163Z,61
2022-11-20T09:57:54.489Z,21
2022-11-20T10:01:44.972Z,27
2022-11-20T10:05:27.395Z,29
2022-11-20T10:07:55.733Z,36
2022-11-20T10:11:46.259Z,40
2022-11-20T10:29:28.786Z,26
2022-11-20T11:09:01.060Z,43
2022-11-20T11:11:37.447Z,31
2022-11-20T11:14:13.891Z,30
2022-11-20T11:16:50.338Z,39
2022-11-20T11:21:55.535Z,28
2022-11-20T11:24:42.005Z,42
2022-11-20T11:27:11.272Z,46
2022-11-20T11:29:36.285Z,38
2022-11-20T11:32:12.729Z,32
2022-11-20T11:38:31.549Z,23
2022-11-20T11:43:28.088Z,38
2022-11-20T11:45:56.356Z,28
2022-11-20T11:48:24.752Z,29
2022-11-20T11:53:29.393Z,29
2022-11-20T11:55:57.647Z,70
2022-11-20T11:58:25.875Z,46
2022-11-20T12:03:22.499Z,53
2022-11-20T12:05:58.918Z,43
2022-11-20T12:08:27.328Z,44
2022-11-20T12:11:03.648Z,59
2022-11-20T12:13:31.989Z,19
2022-11-20T12:17:30.660Z,58
2022-11-20T12:19:58.944Z,50
2022-11-20T12:22:27.204Z,27
2022-11-20T12:24:55.474Z,46
2022-11-20T12:27:23.731Z,80
2022-11-20T12:29:51.996Z,43
2022-11-20T12:33:34.405Z,71
2022-11-20T12:38:22.729Z,40
2022-11-20T12:40:50.965Z,27
2022-11-20T12:44:41.622Z,57
2022-11-20T12:48:24.024Z,70
2022-11-20T12:53:20.540Z,35
2022-11-20T12:55:48.787Z,57
2022-11-20T12:59:39.362Z,44
2022-11-20T13:03:30.002Z,40
2022-11-20T13:06:06.440Z,34
2022-11-20T13:08:34.720Z,32
2022-11-20T13:13:55.329Z,61
2022-11-20T13:17:30.020Z,27
2022-11-20T13:20:06.506Z,35
2022-11-20T13:22:34.733Z,27
2022-11-20T13:25:15.272Z,37
2022-11-20T13:27:39.449Z,31
2022-11-20T13:32:44.184Z,36
2022-11-20T13:37:40.722Z,38
2022-11-20T13:42:45.436Z,23
2022-11-20T13:46:36.051Z,26
2022-11-20T13:49:04.414Z,29
2022-11-20T13:51:32.568Z,29
2022-11-20T13:54:00.834Z,17
2022-11-20T13:56:29.124Z,16
2022-11-20T13:58:58.592Z,32
2022-11-20T14:02:39.785Z,21
2022-11-20T14:06:22.288Z,23
2022-11-20T14:38:29.767Z,24
2022-11-20T14:42:20.239Z,29
2022-11-20T14:44:56.718Z,23
2022-11-20T14:47:33.162Z,16
2022-11-20T14:50:04.600Z,28
2022-11-20T14:52:37.879Z,28
2022-11-20T14:56:28.453Z,17
2022-11-20T14:58:56.767Z,33
2022-11-20T15:02:39.151Z,27
2022-11-20T15:06:21.549Z,27
2022-11-20T15:08:49.820Z,17
2022-11-20T15:12:32.224Z,24
2022-11-20T15:58:23.388Z,23
2022-11-20T16:03:28.053Z,33
2022-11-20T16:05:56.353Z,45
2022-11-20T16:08:24.618Z,20
2022-11-20T16:10:52.817Z,45
2022-11-20T16:14:43.533Z,33
2022-11-20T16:18:34.042Z,26
2022-11-20T16:21:02.294Z,33
2022-11-20T16:23:38.796Z,27
2022-11-20T16:27:29.355Z,29
2022-11-20T16:29:57.668Z,34
2022-11-20T16:32:25.890Z,57
2022-11-20T16:34:54.181Z,50
2022-11-20T16:37:22.402Z,22
2022-11-20T16:39:50.675Z,40
2022-11-20T16:43:33.050Z,48
2022-11-20T16:46:01.329Z,27
2022-11-20T16:49:35.563Z,27
2022-11-20T16:52:03.932Z,46
2022-11-20T16:54:40.329Z,29
2022-11-20T16:58:22.677Z,36
2022-11-20T17:02:13.307Z,55
2022-11-20T17:04:41.542Z,20
2022-11-20T17:08:23.950Z,41
2022-11-20T17:12:06.339Z,55
2022-11-20T17:14:34.708Z,71
2022-11-20T17:23:21.818Z,47
2022-11-20T17:34:37.222Z,25
2022-11-20T18:04:24.710Z,84
2022-11-20T18:08:06.929Z,48
2022-11-20T18:32:57.844Z,55
2022-11-20T18:38:02.556Z,51
2022-11-20T19:51:04.655Z,7
2022-11-20T20:44:36.855Z,20
2022-11-20T20:47:05.220Z,20
2022-11-20T20:50:55.690Z,31
2022-11-20T20:53:32.214Z,54
2022-11-20T20:56:00.423Z,25
2022-11-20T20:58:20.504Z,50
2022-11-20T21:00:48.827Z,42
2022-11-20T21:04:39.378Z,13
2022-11-20T21:08:29.987Z,41
2022-11-20T21:11:06.415Z,23
2022-11-20T21:13:43.006Z,57
2022-11-20T21:17:25.273Z,38
2022-11-20T21:22:21.903Z,21
2022-11-20T21:24:58.282Z,29
2022-11-20T21:27:26.557Z,48
2022-11-20T21:32:23.168Z,56
2022-11-20T21:34:59.607Z,15
2022-11-20T21:37:39.711Z,44
2022-11-20T21:42:32.531Z,38
2022-11-20T21:45:08.978Z,15
2022-11-20T21:47:37.242Z,42
2022-11-20T21:52:42.043Z,43
2022-11-20T21:56:32.570Z,30
2022-11-20T21:58:52.652Z,65
2022-11-20T22:01:20.993Z,72
2022-11-20T22:03:57.401Z,57
2022-11-20T22:06:25.633Z,54
2022-11-20T22:08:53.887Z,43
2022-11-20T22:11:30.400Z,87
2022-11-20T22:14:06.915Z,78
2022-11-20T22:16:43.287Z,63
2022-11-20T22:21:39.823Z,51
2022-11-20T22:25:30.370Z,48
2022-11-20T22:27:58.765Z,35
2022-11-20T22:31:49.235Z,62
2022-11-20T22:35:39.860Z,66
2022-11-20T22:39:30.441Z,55
2022-11-20T22:41:58.697Z,76
2022-11-20T22:44:26.966Z,44
2022-11-20T22:46:55.272Z,104
2022-11-20T22:49:23.496Z,80
2022-11-20T22:51:51.799Z,46
2022-11-20T23:06:57.834Z,56
2022-11-20T23:29:28.629Z,40
